createdAt,value
2023-05-04T00:01:29.164Z,29.90
2023-05-04T00:03:57.465Z,29.90
2023-05-04T00:06:26.013Z,29.90
2023-05-04T00:08:54.329Z,30.10
2023-05-04T00:11:22.476Z,30.00
2023-05-04T00:13:50.630Z,30.10
2023-05-04T00:16:18.969Z,30.10
2023-05-04T00:18:47.233Z,30.00
2023-05-04T00:21:15.367Z,29.90
2023-05-04T00:23:43.579Z,29.50
2023-05-04T00:26:11.846Z,29.40
2023-05-04T00:28:41.583Z,29.30
2023-05-04T00:31:10.024Z,29.30
2023-05-04T00:33:38.291Z,29.20
2023-05-04T00:36:06.719Z,29.60
2023-05-04T00:38:51.325Z,29.90
2023-05-04T00:41:21.309Z,29.80
2023-05-04T00:43:49.528Z,29.90
2023-05-04T00:46:18.952Z,30.00
2023-05-04T00:48:49.834Z,29.90
2023-05-04T00:51:20.590Z,29.90
2023-05-04T00:53:49.378Z,29.90
2023-05-04T00:56:19.043Z,30.00
2023-05-04T00:58:47.313Z,30.00
2023-05-04T01:01:15.540Z,30.00
2023-05-04T01:03:43.984Z,29.70
2023-05-04T01:06:28.831Z,29.70
2023-05-04T01:09:05.818Z,29.90
2023-05-04T01:11:51.428Z,29.80
2023-05-04T01:14:21.869Z,29.90
2023-05-04T01:16:54.330Z,29.90
2023-05-04T01:19:23.068Z,29.90
2023-05-04T01:21:51.663Z,29.90
2023-05-04T01:24:20.600Z,30.00
2023-05-04T01:26:55.612Z,30.00
2023-05-04T01:29:55.232Z,29.90
2023-05-04T01:32:24.241Z,29.90
2023-05-04T01:34:52.706Z,30.00
2023-05-04T01:37:21.015Z,30.00
2023-05-04T01:39:49.374Z,29.90
2023-05-04T01:42:17.406Z,30.00
2023-05-04T01:44:45.707Z,29.90
2023-05-04T01:47:13.976Z,30.00
2023-05-04T01:49:42.368Z,30.00
2023-05-04T01:52:10.551Z,29.90
2023-05-04T01:54:38.711Z,29.80
2023-05-04T01:57:06.941Z,29.70
2023-05-04T01:59:35.150Z,29.90
2023-05-04T02:02:03.364Z,29.80
2023-05-04T02:04:31.616Z,29.60
2023-05-04T02:06:59.964Z,29.30
2023-05-04T02:09:28.206Z,28.90
2023-05-04T02:11:56.376Z,28.50
2023-05-04T02:14:25.494Z,28.40
2023-05-04T02:16:53.692Z,28.40
2023-05-04T02:19:22.196Z,28.50
2023-05-04T02:21:50.229Z,28.80
2023-05-04T02:24:18.446Z,29.10
2023-05-04T02:26:46.657Z,29.10
2023-05-04T02:29:15.691Z,29.00
2023-05-04T02:31:44.053Z,29.00
2023-05-04T02:34:12.174Z,28.90
2023-05-04T02:36:47.977Z,28.90
2023-05-04T02:39:16.442Z,29.00
2023-05-04T02:41:44.840Z,29.10
2023-05-04T02:44:12.876Z,29.00
2023-05-04T02:46:40.995Z,28.90
2023-05-04T02:49:09.349Z,28.90
2023-05-04T02:51:37.559Z,29.00
2023-05-04T02:54:05.754Z,29.00
2023-05-04T02:56:33.927Z,29.00
2023-05-04T02:59:02.181Z,29.00
2023-05-04T03:01:32.121Z,28.90
2023-05-04T03:04:01.712Z,28.80
2023-05-04T03:06:30.599Z,28.80
2023-05-04T03:08:59.129Z,28.90
2023-05-04T03:11:27.712Z,29.00
2023-05-04T03:13:56.082Z,28.90
2023-05-04T03:16:24.606Z,28.90
2023-05-04T03:18:58.572Z,28.90
2023-05-04T03:21:27.000Z,28.80
2023-05-04T03:23:55.232Z,28.90
2023-05-04T03:26:23.560Z,28.70
2023-05-04T03:28:51.910Z,28.50
2023-05-04T03:31:20.134Z,28.40
2023-05-04T03:33:51.720Z,28.20
2023-05-04T03:36:20.454Z,28.10
2023-05-04T03:38:48.869Z,28.10
2023-05-04T03:41:17.440Z,28.30
2023-05-04T03:43:45.718Z,28.50
2023-05-04T03:46:14.049Z,28.20
2023-05-04T03:48:42.245Z,28.30
2023-05-04T03:51:14.501Z,28.50
2023-05-04T03:53:44.650Z,28.40
2023-05-04T03:56:16.091Z,28.50
2023-05-04T03:58:44.461Z,28.50
2023-05-04T04:01:14.786Z,28.60
2023-05-04T04:03:43.259Z,28.40
2023-05-04T04:06:12.126Z,28.40
2023-05-04T04:08:40.656Z,28.30
2023-05-04T04:11:10.050Z,28.20
2023-05-04T04:13:38.265Z,28.30
2023-05-04T04:16:06.607Z,28.40
2023-05-04T04:18:34.840Z,28.30
2023-05-04T04:21:03.182Z,28.30
2023-05-04T04:23:31.338Z,28.40
2023-05-04T04:25:59.608Z,28.30
2023-05-04T04:28:28.058Z,28.30
2023-05-04T04:30:56.543Z,28.30
2023-05-04T04:33:24.659Z,28.50
2023-05-04T04:35:52.859Z,28.40
2023-05-04T04:38:21.090Z,28.30
2023-05-04T04:40:49.275Z,28.40
2023-05-04T04:43:17.420Z,28.40
2023-05-04T04:45:45.596Z,28.20
2023-05-04T04:48:13.901Z,28.30
2023-05-04T04:50:42.270Z,28.40
2023-05-04T04:53:10.324Z,28.30
2023-05-04T04:55:38.756Z,28.10
2023-05-04T04:58:06.912Z,28.00
2023-05-04T05:00:35.521Z,27.90
2023-05-04T05:03:03.812Z,28.00
2023-05-04T05:05:32.195Z,28.40
2023-05-04T05:08:00.413Z,28.30
2023-05-04T05:10:28.746Z,28.00
2023-05-04T05:12:56.987Z,27.90
2023-05-04T05:15:25.175Z,28.10
2023-05-04T05:17:53.478Z,28.30
2023-05-04T05:20:21.735Z,28.00
2023-05-04T05:22:49.901Z,28.10
2023-05-04T05:25:21.349Z,28.30
2023-05-04T05:27:49.737Z,28.10
2023-05-04T05:30:18.082Z,27.90
2023-05-04T05:32:47.751Z,27.60
2023-05-04T05:35:17.577Z,27.30
2023-05-04T05:37:45.825Z,27.10
2023-05-04T05:40:14.261Z,27.10
2023-05-04T05:42:42.325Z,26.90
2023-05-04T05:45:11.734Z,27.10
2023-05-04T05:47:39.989Z,27.30
2023-05-04T05:50:08.839Z,27.40
2023-05-04T05:52:37.032Z,27.80
2023-05-04T05:55:05.929Z,27.80
2023-05-04T05:57:34.151Z,27.60
2023-05-04T06:00:02.611Z,27.50
2023-05-04T06:02:40.626Z,27.40
2023-05-04T06:05:09.103Z,27.30
2023-05-04T06:07:37.588Z,27.20
2023-05-04T06:10:06.821Z,27.20
2023-05-04T06:12:35.178Z,27.40
2023-05-04T06:15:03.431Z,27.50
2023-05-04T06:17:31.698Z,27.40
2023-05-04T06:20:00.123Z,27.20
2023-05-04T06:22:28.200Z,27.00
2023-05-04T06:25:01.522Z,26.90
2023-05-04T06:27:32.136Z,26.90
2023-05-04T06:30:00.665Z,27.00
2023-05-04T06:32:28.888Z,27.10
2023-05-04T06:34:57.201Z,27.20
2023-05-04T06:37:25.535Z,27.20
2023-05-04T06:39:53.695Z,27.20
2023-05-04T06:42:21.750Z,27.10
2023-05-04T06:44:52.269Z,27.20
2023-05-04T06:47:20.433Z,27.30
2023-05-04T06:49:48.748Z,27.40
2023-05-04T06:52:16.776Z,27.20
2023-05-04T06:54:45.089Z,26.80
2023-05-04T06:57:13.360Z,26.80
2023-05-04T06:59:41.568Z,27.00
2023-05-04T07:02:09.799Z,27.10
2023-05-04T07:04:38.041Z,27.30
2023-05-04T07:07:06.354Z,27.50
2023-05-04T07:09:34.610Z,27.70
2023-05-04T07:12:02.880Z,27.50
2023-05-04T07:14:31.005Z,27.50
2023-05-04T07:17:00.406Z,27.60
2023-05-04T07:19:28.821Z,27.70
2023-05-04T07:21:57.468Z,27.50
2023-05-04T07:24:29.602Z,27.80
2023-05-04T07:26:57.827Z,28.40
2023-05-04T07:29:26.092Z,28.50
2023-05-04T07:31:54.307Z,28.90
2023-05-04T07:34:30.495Z,28.90
2023-05-04T07:37:04.974Z,28.40
2023-05-04T07:39:36.100Z,28.70
2023-05-04T07:42:04.515Z,29.00
2023-05-04T07:44:33.131Z,28.70
2023-05-04T07:47:02.181Z,29.10
2023-05-04T07:49:30.538Z,29.40
2023-05-04T07:51:58.982Z,29.70
2023-05-04T07:54:28.966Z,29.50
2023-05-04T07:56:57.309Z,29.40
2023-05-04T07:59:25.671Z,29.30
2023-05-04T08:01:53.951Z,29.90
2023-05-04T08:04:22.478Z,30.00
2023-05-04T08:06:50.654Z,30.60
2023-05-04T08:09:19.272Z,31.60
2023-05-04T08:11:48.838Z,33.60
2023-05-04T08:14:17.250Z,34.70
2023-05-04T08:16:45.368Z,36.00
2023-05-04T08:19:13.785Z,36.10
2023-05-04T08:21:42.044Z,35.60
2023-05-04T08:24:10.360Z,35.90
2023-05-04T08:26:39.135Z,36.20
2023-05-04T08:29:08.325Z,35.40
2023-05-04T08:31:37.300Z,33.70
2023-05-04T08:34:05.636Z,34.40
2023-05-04T08:36:34.239Z,35.20
2023-05-04T08:39:02.303Z,35.80
2023-05-04T08:41:31.043Z,34.50
2023-05-04T08:43:59.835Z,34.80
2023-05-04T08:46:28.902Z,35.20
2023-05-04T08:48:57.719Z,35.00
2023-05-04T08:51:26.782Z,36.30
2023-05-04T08:53:55.944Z,36.70
2023-05-04T08:56:25.426Z,37.20
2023-05-04T08:58:53.930Z,35.30
2023-05-04T09:01:22.740Z,37.20
2023-05-04T09:03:51.421Z,35.90
2023-05-04T09:06:19.827Z,37.00
2023-05-04T09:08:48.175Z,37.80
2023-05-04T09:11:16.526Z,37.40
2023-05-04T09:13:44.622Z,37.20
2023-05-04T09:16:14.684Z,37.50
2023-05-04T09:18:45.711Z,37.80
2023-05-04T09:21:13.995Z,37.80
2023-05-04T09:23:49.223Z,38.30
2023-05-04T09:26:28.428Z,37.40
2023-05-04T09:28:57.221Z,37.10
2023-05-04T09:31:25.530Z,37.20
2023-05-04T09:33:54.200Z,37.50
2023-05-04T09:36:22.671Z,37.90
2023-05-04T09:38:50.965Z,39.00
2023-05-04T09:41:19.149Z,38.10
2023-05-04T09:43:47.330Z,37.20
2023-05-04T09:46:19.102Z,36.70
2023-05-04T09:48:55.783Z,35.80
2023-05-04T09:51:25.897Z,34.90
2023-05-04T09:53:54.648Z,34.50
2023-05-04T09:56:25.636Z,34.30
2023-05-04T09:58:56.827Z,34.00
2023-05-04T10:01:29.024Z,34.50
2023-05-04T10:03:57.578Z,34.70
2023-05-04T10:06:28.985Z,34.40
2023-05-04T10:09:01.670Z,33.20
2023-05-04T10:11:30.472Z,32.60
2023-05-04T10:13:58.865Z,32.80
2023-05-04T10:16:46.683Z,33.60
2023-05-04T10:19:33.182Z,33.10
2023-05-04T10:22:12.794Z,33.10
2023-05-04T10:24:57.040Z,33.60
2023-05-04T10:27:55.647Z,33.90
2023-05-04T10:30:24.466Z,33.10
2023-05-04T10:32:59.725Z,33.80
2023-05-04T10:35:28.098Z,34.20
2023-05-04T10:37:57.236Z,34.30
2023-05-04T10:40:39.143Z,34.70
2023-05-04T10:43:08.768Z,33.80
2023-05-04T10:45:43.384Z,33.30
2023-05-04T10:48:11.775Z,33.80
2023-05-04T10:50:47.510Z,33.90
2023-05-04T10:53:17.836Z,33.70
2023-05-04T10:55:49.605Z,33.30
2023-05-04T10:58:29.602Z,33.00
2023-05-04T11:00:57.997Z,32.90
2023-05-04T11:03:27.277Z,33.10
2023-05-04T11:05:55.609Z,33.60
2023-05-04T11:08:24.893Z,33.70
2023-05-04T11:11:03.221Z,34.10
2023-05-04T11:13:33.952Z,33.80
2023-05-04T11:16:02.466Z,33.50
2023-05-04T11:18:33.941Z,33.60
2023-05-04T11:21:02.466Z,33.90
2023-05-04T11:23:31.157Z,33.60
2023-05-04T11:26:04.812Z,33.30
2023-05-04T11:28:34.814Z,33.40
2023-05-04T11:31:16.446Z,33.10
2023-05-04T11:33:48.835Z,33.40
2023-05-04T11:36:18.322Z,33.30
2023-05-04T11:38:46.822Z,33.10
2023-05-04T11:41:15.070Z,32.90
2023-05-04T11:43:45.346Z,32.90
2023-05-04T11:46:14.832Z,32.90
2023-05-04T11:48:43.362Z,33.00
2023-05-04T11:51:12.065Z,32.90
2023-05-04T11:53:41.317Z,33.10
2023-05-04T11:56:09.977Z,33.00
2023-05-04T11:58:38.425Z,33.20
2023-05-04T12:01:06.674Z,33.40
2023-05-04T12:03:52.040Z,33.60
2023-05-04T12:06:34.748Z,33.50
2023-05-04T12:09:06.769Z,34.10
2023-05-04T12:11:35.657Z,34.20
2023-05-04T12:14:12.271Z,34.40
2023-05-04T12:16:40.919Z,34.20
2023-05-04T12:19:13.124Z,34.40
2023-05-04T12:21:52.323Z,34.20
2023-05-04T12:24:25.156Z,33.90
2023-05-04T12:26:53.481Z,34.00
2023-05-04T12:29:21.577Z,33.80
2023-05-04T12:31:49.904Z,33.50
2023-05-04T12:34:18.079Z,33.10
2023-05-04T12:36:46.314Z,33.10
2023-05-04T12:39:14.633Z,33.30
2023-05-04T12:41:42.908Z,33.30
2023-05-04T12:44:10.980Z,33.30
2023-05-04T12:46:39.313Z,33.20
2023-05-04T12:49:07.924Z,32.80
2023-05-04T12:51:36.088Z,33.00
2023-05-04T12:54:04.416Z,33.50
2023-05-04T12:56:33.508Z,33.80
2023-05-04T12:59:01.604Z,34.00
2023-05-04T13:01:30.986Z,33.90
2023-05-04T13:03:59.221Z,33.70
2023-05-04T13:06:30.705Z,33.90
2023-05-04T13:08:58.915Z,33.80
2023-05-04T13:11:27.021Z,33.80
2023-05-04T13:13:55.332Z,33.90
2023-05-04T13:16:23.589Z,33.60
2023-05-04T13:18:51.808Z,33.60
2023-05-04T13:21:20.178Z,33.50
2023-05-04T13:23:48.385Z,33.40
2023-05-04T13:26:16.696Z,33.00
2023-05-04T13:28:45.014Z,33.40
2023-05-04T13:31:13.640Z,33.80
2023-05-04T13:33:41.820Z,34.10
2023-05-04T13:36:10.189Z,34.20
2023-05-04T13:38:38.668Z,34.40
2023-05-04T13:41:06.874Z,34.20
2023-05-04T13:43:35.156Z,33.90
2023-05-04T13:46:04.507Z,33.80
2023-05-04T13:48:32.739Z,33.40
2023-05-04T13:51:02.803Z,33.70
2023-05-04T13:53:31.132Z,33.70
2023-05-04T13:55:59.656Z,33.60
2023-05-04T13:58:27.890Z,33.60
2023-05-04T14:00:56.146Z,33.70
2023-05-04T16:42:47.930Z,32.80
2023-05-04T16:45:34.988Z,32.60
2023-05-04T16:48:06.135Z,32.40
2023-05-04T16:50:35.276Z,32.30
2023-05-04T16:53:03.916Z,32.10
2023-05-04T16:55:32.528Z,32.40
2023-05-04T18:03:20.719Z,31.00
2023-05-04T18:05:49.024Z,31.20
2023-05-04T18:08:17.370Z,31.20
2023-05-04T18:10:45.633Z,31.10
2023-05-04T18:13:13.805Z,30.90
2023-05-04T18:15:42.016Z,30.90
2023-05-04T18:18:10.217Z,30.90
2023-05-04T18:20:38.588Z,31.00
2023-05-04T18:23:06.725Z,31.00
2023-05-04T18:25:36.870Z,31.10
2023-05-04T18:28:06.621Z,30.80
2023-05-04T18:30:35.070Z,30.30
2023-05-04T18:33:03.373Z,30.20
2023-05-04T18:35:31.572Z,30.30
2023-05-04T18:37:59.735Z,30.70
2023-05-04T18:40:27.998Z,30.70
2023-05-04T18:42:56.297Z,30.60
2023-05-04T18:45:25.204Z,30.20
2023-05-04T18:47:53.441Z,30.10
2023-05-04T18:50:22.274Z,30.10
2023-05-04T18:52:50.472Z,30.20
2023-05-04T18:55:18.638Z,30.30
2023-05-04T18:57:46.918Z,30.30
2023-05-04T19:00:15.356Z,30.50
2023-05-04T19:02:43.538Z,30.20
2023-05-04T19:05:14.293Z,30.00
2023-05-04T19:07:42.821Z,29.90
2023-05-04T19:10:11.406Z,30.00
2023-05-04T19:12:39.540Z,30.20
2023-05-04T19:15:09.609Z,30.40
2023-05-04T19:17:37.821Z,30.30
2023-05-04T19:20:08.616Z,30.40
2023-05-04T19:22:38.335Z,30.50
2023-05-04T19:25:06.878Z,30.50
2023-05-04T19:27:35.091Z,30.40
2023-05-04T19:30:03.275Z,30.10
2023-05-04T19:32:31.415Z,30.00
2023-05-04T19:34:59.801Z,29.80
2023-05-04T19:37:27.926Z,29.80
2023-05-04T19:39:55.999Z,29.90
2023-05-04T19:42:24.130Z,30.20
2023-05-04T19:44:52.639Z,30.30
2023-05-04T19:47:20.739Z,30.30
2023-05-04T19:49:48.996Z,30.20
2023-05-04T19:52:17.232Z,29.90
2023-05-04T19:54:45.453Z,29.90
2023-05-04T19:57:13.713Z,29.80
2023-05-04T19:59:41.933Z,29.60
2023-05-04T20:02:10.218Z,29.70
2023-05-04T20:04:38.580Z,29.90
2023-05-04T20:07:06.707Z,30.00
2023-05-04T20:09:37.780Z,30.00
2023-05-04T20:12:07.681Z,30.10
2023-05-04T20:14:36.771Z,30.10
2023-05-04T20:17:05.078Z,29.90
2023-05-04T20:19:33.317Z,29.60
2023-05-04T20:22:01.440Z,29.50
2023-05-04T20:24:29.669Z,29.50
2023-05-04T20:26:57.802Z,29.80
2023-05-04T20:29:25.915Z,30.00
2023-05-04T20:31:54.304Z,29.90
2023-05-04T20:34:22.801Z,30.00
2023-05-04T20:36:50.988Z,30.20
2023-05-04T20:39:19.196Z,29.80
2023-05-04T20:41:47.775Z,29.50
2023-05-04T20:44:16.677Z,29.50
2023-05-04T20:46:45.359Z,29.50
2023-05-04T20:49:13.939Z,29.70
2023-05-04T20:51:42.406Z,29.90
2023-05-04T20:54:10.798Z,30.00
2023-05-04T20:56:38.982Z,29.60
2023-05-04T20:59:07.375Z,29.50
2023-05-04T21:01:35.656Z,29.30
2023-05-04T21:04:04.022Z,29.30
2023-05-04T21:06:34.431Z,29.50
2023-05-04T21:09:02.585Z,29.70
2023-05-04T21:11:30.877Z,30.00
2023-05-04T21:13:59.312Z,29.70
2023-05-04T21:16:27.489Z,29.50
2023-05-04T21:18:55.606Z,29.30
2023-05-04T21:21:23.714Z,29.30
2023-05-04T21:23:52.098Z,29.30
2023-05-04T21:26:20.363Z,29.60
2023-05-04T21:28:48.525Z,29.90
2023-05-04T21:31:16.657Z,29.70
2023-05-04T21:33:44.960Z,29.50
2023-05-04T21:36:16.502Z,29.40
2023-05-04T21:38:44.894Z,29.30
2023-05-04T21:41:17.216Z,29.40
2023-05-04T21:43:45.478Z,29.60
2023-05-04T21:46:13.566Z,29.80
2023-05-04T21:48:41.808Z,29.90
2023-05-04T21:51:10.097Z,29.50
2023-05-04T21:53:38.273Z,29.30
2023-05-04T21:56:10.642Z,29.20
2023-05-04T21:58:39.701Z,29.20
2023-05-04T22:01:08.840Z,29.30
2023-05-04T22:03:37.226Z,29.60
2023-05-04T22:06:06.112Z,29.70
2023-05-04T22:08:34.582Z,29.90
2023-05-04T22:11:02.958Z,29.90
2023-05-04T22:13:31.151Z,29.70
2023-05-04T22:15:59.394Z,29.60
2023-05-04T22:18:27.720Z,29.50
2023-05-04T22:20:56.062Z,29.60
2023-05-04T22:23:24.286Z,29.70
2023-05-04T22:25:52.627Z,29.70
2023-05-04T22:28:22.486Z,29.80
2023-05-04T22:30:50.841Z,29.70
2023-05-04T22:33:18.993Z,29.70
2023-05-04T22:35:47.227Z,29.80
2023-05-04T22:38:15.417Z,29.60
2023-05-04T22:40:43.789Z,29.40
2023-05-04T22:43:12.130Z,29.70
2023-05-04T22:45:40.269Z,29.60
2023-05-04T22:48:08.482Z,30.00
2023-05-04T22:50:36.695Z,29.90
2023-05-04T22:53:05.079Z,29.80
2023-05-04T22:55:33.335Z,29.80
2023-05-04T22:58:01.475Z,29.70
2023-05-04T23:00:29.934Z,29.60
2023-05-04T23:02:58.094Z,29.60
2023-05-04T23:05:26.656Z,29.70
2023-05-04T23:07:54.727Z,29.70
2023-05-04T23:10:23.190Z,29.80
2023-05-04T23:12:51.319Z,29.70
2023-05-04T23:15:19.545Z,29.80
2023-05-04T23:17:47.759Z,29.60
2023-05-04T23:20:15.970Z,29.70
2023-05-04T23:22:44.048Z,29.50
2023-05-04T23:25:12.142Z,29.60
2023-05-04T23:27:40.284Z,29.70
2023-05-04T23:30:09.657Z,29.70
2023-05-04T23:32:38.247Z,29.80
2023-05-04T23:35:07.140Z,29.80
2023-05-04T23:37:35.414Z,29.70
2023-05-04T23:40:03.669Z,29.50
2023-05-04T23:42:31.727Z,29.40
2023-05-04T23:44:59.919Z,29.50
2023-05-04T23:47:28.073Z,29.70
2023-05-04T23:49:56.299Z,29.60
2023-05-04T23:52:24.412Z,29.60
2023-05-04T23:54:55.474Z,29.50
2023-05-04T23:57:23.542Z,29.50
2023-05-04T23:59:53.188Z,29.50
